createdAt,value
2022-09-20T00:01:33.378Z,101109.50
2022-09-20T00:04:05.085Z,101115.78
2022-09-20T00:06:32.697Z,101111.16
2022-09-20T00:09:02.942Z,101118.63
2022-09-20T00:11:32.250Z,101113.38
2022-09-20T00:14:00.546Z,101105.50
2022-09-20T00:16:31.495Z,101115.22
2022-09-20T00:18:59.752Z,101111.31
2022-09-20T00:21:28.670Z,101102.97
2022-09-20T00:23:57.339Z,101108.06
2022-09-20T00:26:24.500Z,101109.41
2022-09-20T00:28:51.776Z,101113.63
2022-09-20T00:31:23.518Z,101111.25
2022-09-20T00:34:11.895Z,101117.91
2022-09-20T00:36:40.862Z,101122.50
2022-09-20T00:39:07.282Z,101122.81
2022-09-20T00:41:36.086Z,101122.69
2022-09-20T00:44:03.968Z,101114.66
2022-09-20T00:46:37.913Z,101122.69
2022-09-20T00:49:15.717Z,101118.38
2022-09-20T00:51:47.066Z,101128.13
2022-09-20T00:54:20.518Z,101126.56
2022-09-20T00:56:47.242Z,101121.09
2022-09-20T00:59:27.774Z,101117.69
2022-09-20T01:01:59.505Z,101115.44
2022-09-20T01:04:28.203Z,101117.81
2022-09-20T01:07:02.109Z,101114.88
2022-09-20T01:09:28.986Z,101119.66
2022-09-20T01:11:58.045Z,101113.16
2022-09-20T01:14:27.455Z,101123.56
2022-09-20T01:16:57.551Z,101120.00
2022-09-20T01:19:32.757Z,101122.72
2022-09-20T01:22:04.182Z,101119.00
2022-09-20T01:24:53.753Z,101125.13
2022-09-20T01:27:40.628Z,101120.38
2022-09-20T01:30:13.468Z,101121.06
2022-09-20T01:32:44.202Z,101116.47
2022-09-20T01:35:12.021Z,101121.06
2022-09-20T01:38:05.090Z,101122.94
2022-09-20T01:40:49.975Z,101119.03
2022-09-20T01:43:52.942Z,101116.16
2022-09-20T01:46:31.451Z,101119.56
2022-09-20T01:49:52.124Z,101123.13
2022-09-20T01:52:46.507Z,101120.59
2022-09-20T01:55:34.399Z,101118.56
2022-09-20T01:58:24.601Z,101107.69
2022-09-20T02:01:22.205Z,101117.44
2022-09-20T02:03:53.818Z,101108.75
2022-09-20T02:06:39.263Z,101115.19
2022-09-20T02:09:14.289Z,101110.06
2022-09-20T02:12:33.261Z,101108.69
2022-09-20T02:15:19.678Z,101109.03
2022-09-20T02:17:49.562Z,101103.41
2022-09-20T02:20:34.602Z,101107.31
2022-09-20T02:23:15.529Z,101103.88
2022-09-20T02:26:03.602Z,101112.25
2022-09-20T02:29:02.793Z,101104.75
2022-09-20T02:31:53.388Z,101103.22
2022-09-20T02:34:29.220Z,101108.16
2022-09-20T02:37:18.609Z,101110.53
2022-09-20T02:40:06.595Z,101113.25
2022-09-20T02:42:45.924Z,101108.81
2022-09-20T02:45:22.770Z,101115.28
2022-09-20T02:47:49.708Z,101109.16
2022-09-20T02:50:38.474Z,101108.47
2022-09-20T02:53:30.016Z,101112.56
2022-09-20T02:56:09.352Z,101118.16
2022-09-20T02:59:25.507Z,101125.34
2022-09-20T03:02:06.258Z,101127.88
2022-09-20T03:04:52.082Z,101121.72
2022-09-20T03:07:39.854Z,101129.88
2022-09-20T03:10:26.000Z,101130.06
2022-09-20T03:13:18.625Z,101126.78
2022-09-20T03:16:14.280Z,101128.69
2022-09-20T03:19:09.081Z,101134.94
2022-09-20T03:22:17.555Z,101133.59
2022-09-20T03:25:02.735Z,101139.19
2022-09-20T03:27:41.478Z,101144.13
2022-09-20T03:30:27.655Z,101150.75
2022-09-20T03:33:24.535Z,101155.66
2022-09-20T03:36:08.649Z,101146.63
2022-09-20T03:38:37.160Z,101147.97
2022-09-20T03:41:12.380Z,101149.13
2022-09-20T03:43:51.411Z,101145.72
2022-09-20T03:46:19.563Z,101146.91
2022-09-20T03:49:04.377Z,101149.13
2022-09-20T03:51:51.756Z,101146.00
2022-09-20T03:54:37.044Z,101144.28
2022-09-20T03:57:14.310Z,101146.16
2022-09-20T04:00:20.708Z,101149.91
2022-09-20T04:03:21.129Z,101150.75
2022-09-20T04:06:14.782Z,101139.72
2022-09-20T04:08:44.221Z,101139.72
2022-09-20T04:11:20.825Z,101147.66
2022-09-20T04:14:31.038Z,101140.78
2022-09-20T04:17:15.792Z,101143.81
2022-09-20T04:20:12.577Z,101150.19
2022-09-20T04:22:43.352Z,101144.69
2022-09-20T04:25:17.592Z,101149.91
2022-09-20T04:27:50.031Z,101155.53
2022-09-20T04:30:21.014Z,101142.50
2022-09-20T04:33:12.036Z,101146.63
2022-09-20T04:36:18.602Z,101147.91
2022-09-20T04:38:55.394Z,101152.13
2022-09-20T04:41:43.072Z,101157.88
2022-09-20T04:44:37.021Z,101160.09
2022-09-20T04:47:33.889Z,101168.34
2022-09-20T04:50:25.195Z,101172.53
2022-09-20T04:53:17.216Z,101175.03
2022-09-20T04:55:53.041Z,101170.19
2022-09-20T04:58:42.164Z,101178.47
2022-09-20T05:01:37.023Z,101178.47
2022-09-20T05:04:38.227Z,101185.03
2022-09-20T05:07:42.382Z,101189.88
2022-09-20T05:10:36.503Z,101188.78
2022-09-20T05:13:30.289Z,101202.00
2022-09-20T05:16:01.097Z,101199.88
2022-09-20T05:19:04.622Z,101200.19
2022-09-20T05:21:52.665Z,101208.47
2022-09-20T05:24:53.986Z,101198.38
2022-09-20T05:27:41.956Z,101202.38
2022-09-20T05:30:16.620Z,101210.72
2022-09-20T05:33:20.437Z,101212.00
2022-09-20T05:36:02.206Z,101222.16
2022-09-20T05:38:52.877Z,101222.47
2022-09-20T05:41:52.409Z,101223.72
2022-09-20T05:44:24.694Z,101225.59
2022-09-20T05:47:25.094Z,101219.06
2022-09-20T05:50:28.334Z,101226.19
2022-09-20T05:52:58.519Z,101225.72
2022-09-20T05:56:01.784Z,101231.03
2022-09-20T05:58:43.218Z,101229.84
2022-09-20T06:01:39.708Z,101229.84
2022-09-20T06:04:27.118Z,101238.81
2022-09-20T06:07:28.052Z,101232.91
2022-09-20T06:10:24.613Z,101236.72
2022-09-20T06:13:34.596Z,101232.06
2022-09-20T06:16:06.794Z,101236.16
2022-09-20T06:18:39.114Z,101231.91
2022-09-20T06:21:28.170Z,101235.38
2022-09-20T06:24:00.862Z,101219.38
2022-09-20T06:26:33.759Z,101227.66
2022-09-20T06:29:08.360Z,101219.84
2022-09-20T06:31:38.010Z,101220.66
2022-09-20T06:34:08.918Z,101217.38
2022-09-20T06:36:58.132Z,101228.00
2022-09-20T06:40:08.379Z,101223.69
2022-09-20T06:42:36.064Z,101232.53
2022-09-20T06:45:04.773Z,101234.59
2022-09-20T06:47:32.406Z,101242.75
2022-09-20T06:50:06.431Z,101246.16
2022-09-20T06:52:37.065Z,101239.38
2022-09-20T06:55:07.390Z,101233.25
2022-09-20T06:57:37.813Z,101241.78
2022-09-20T07:00:06.616Z,101241.53
2022-09-20T07:02:33.137Z,101240.50
2022-09-20T07:05:04.651Z,101245.66
2022-09-20T07:07:31.131Z,101249.75
2022-09-20T07:09:58.453Z,101238.56
2022-09-20T07:12:25.177Z,101241.09
2022-09-20T07:14:51.616Z,101244.00
2022-09-20T07:17:18.008Z,101234.13
2022-09-20T07:19:44.406Z,101240.66
2022-09-20T07:22:10.979Z,101246.78
2022-09-20T07:24:41.196Z,101247.09
2022-09-20T07:27:11.207Z,101250.00
2022-09-20T07:29:38.013Z,101259.22
2022-09-20T07:32:07.031Z,101258.03
2022-09-20T07:34:35.655Z,101260.09
2022-09-20T07:37:02.359Z,101258.03
2022-09-20T07:39:28.786Z,101267.25
2022-09-20T07:41:57.580Z,101268.94
2022-09-20T07:44:24.896Z,101271.69
2022-09-20T07:46:53.237Z,101267.78
2022-09-20T07:49:19.957Z,101267.22
2022-09-20T07:51:46.512Z,101263.28
2022-09-20T07:54:12.883Z,101272.69
2022-09-20T07:56:42.108Z,101271.31
2022-09-20T07:59:11.196Z,101276.78
2022-09-20T08:01:40.675Z,101279.94
2022-09-20T08:04:08.783Z,101279.81
2022-09-20T08:06:40.532Z,101286.50
2022-09-20T08:09:11.100Z,101284.38
2022-09-20T08:11:39.423Z,101291.16
2022-09-20T08:14:17.871Z,101287.94
2022-09-20T08:16:48.397Z,101285.06
2022-09-20T08:19:20.932Z,101294.91
2022-09-20T08:21:47.860Z,101288.47
2022-09-20T08:24:17.131Z,101288.84
2022-09-20T08:26:44.387Z,101286.34
2022-09-20T08:29:11.572Z,101288.53
2022-09-20T08:31:42.393Z,101301.06
2022-09-20T08:34:11.570Z,101297.72
2022-09-20T08:36:42.609Z,101301.44
2022-09-20T08:42:14.570Z,101294.91
2022-09-20T08:44:59.982Z,101295.22
2022-09-20T08:47:35.439Z,101285.06
2022-09-20T08:50:09.545Z,101287.00
2022-09-20T08:52:39.815Z,101306.25
2022-09-20T08:55:15.425Z,101297.34
2022-09-20T08:57:48.668Z,101291.47
2022-09-20T09:00:21.135Z,101285.19
2022-09-20T09:02:53.827Z,101287.03
2022-09-20T09:05:32.316Z,101289.06
2022-09-20T09:08:00.873Z,101283.59
2022-09-20T09:10:42.880Z,101281.31
2022-09-20T09:13:15.829Z,101286.34
2022-09-20T09:15:53.429Z,101286.44
2022-09-20T09:18:19.892Z,101292.22
2022-09-20T09:20:54.942Z,101288.09
2022-09-20T09:23:27.202Z,101294.28
2022-09-20T09:26:02.909Z,101288.53
2022-09-20T09:28:31.707Z,101288.00
2022-09-20T09:31:25.687Z,101286.72
2022-09-20T09:33:52.168Z,101288.69
2022-09-20T09:36:25.725Z,101278.56
2022-09-20T09:39:27.588Z,101281.59
2022-09-20T09:41:54.767Z,101276.75
2022-09-20T09:44:27.616Z,101266.63
2022-09-20T09:46:56.525Z,101276.47
2022-09-20T09:49:30.174Z,101285.75
2022-09-20T09:52:18.131Z,101269.84
2022-09-20T09:54:50.791Z,101267.97
2022-09-20T09:57:58.169Z,101271.28
2022-09-20T10:00:27.071Z,101279.88
2022-09-20T10:03:05.389Z,101263.25
2022-09-20T10:06:00.105Z,101263.16
2022-09-20T10:09:08.240Z,101263.50
2022-09-20T10:12:00.360Z,101261.31
2022-09-20T10:14:53.908Z,101263.59
2022-09-20T10:17:33.016Z,101262.63
2022-09-20T10:20:08.301Z,101262.72
2022-09-20T10:23:00.300Z,101264.09
2022-09-20T10:26:04.495Z,101272.50
2022-09-20T10:28:57.400Z,101269.84
2022-09-20T10:32:08.034Z,101261.69
2022-09-20T10:35:06.224Z,101264.06
2022-09-20T10:37:56.875Z,101263.72
2022-09-20T10:40:49.384Z,101258.22
2022-09-20T10:43:30.261Z,101265.94
2022-09-20T10:46:33.399Z,101264.06
2022-09-20T10:49:18.164Z,101262.53
2022-09-20T10:52:02.651Z,101270.44
2022-09-20T10:54:34.909Z,101264.66
2022-09-20T10:57:32.658Z,101259.97
2022-09-20T11:00:21.059Z,101253.13
2022-09-20T11:03:23.911Z,101255.56
2022-09-20T11:06:08.996Z,101247.13
2022-09-20T11:08:39.860Z,101250.34
2022-09-20T11:11:17.049Z,101253.84
2022-09-20T11:14:03.059Z,101248.38
2022-09-20T11:16:39.227Z,101255.34
2022-09-20T11:19:13.911Z,101253.47
2022-09-20T11:21:48.397Z,101252.06
2022-09-20T11:24:28.272Z,101258.69
2022-09-20T11:27:12.933Z,101260.69
2022-09-20T11:29:45.893Z,101278.84
2022-09-20T11:32:19.860Z,101280.25
2022-09-20T11:34:48.941Z,101285.47
2022-09-20T11:37:17.805Z,101278.81
2022-09-20T11:39:44.097Z,101272.03
2022-09-20T11:42:20.228Z,101279.09
2022-09-20T11:44:50.603Z,101266.66
2022-09-20T11:47:55.469Z,101294.94
2022-09-20T11:51:08.859Z,101308.66
2022-09-20T11:54:04.735Z,101283.94
2022-09-20T11:56:34.547Z,101295.94
2022-09-20T11:59:04.715Z,101286.91
2022-09-20T12:01:41.433Z,101293.72
2022-09-20T12:04:31.663Z,101294.75
2022-09-20T12:07:26.417Z,101291.91
2022-09-20T12:10:02.851Z,101294.53
2022-09-20T12:12:47.816Z,101282.59
2022-09-20T12:15:39.193Z,101274.22
2022-09-20T12:18:29.112Z,101316.88
2022-09-20T12:20:55.471Z,101332.22
2022-09-20T12:23:42.930Z,101270.97
2022-09-20T12:26:21.519Z,101316.13
2022-09-20T12:28:52.303Z,101278.34
2022-09-20T12:31:21.617Z,101300.63
2022-09-20T12:34:09.151Z,101290.69
2022-09-20T12:36:43.064Z,101296.16
2022-09-20T12:39:10.942Z,101253.59
2022-09-20T12:41:52.572Z,101274.31
2022-09-20T12:44:32.683Z,101259.25
2022-09-20T12:47:03.816Z,101261.63
2022-09-20T12:50:30.314Z,101267.56
2022-09-20T12:52:58.449Z,101279.50
2022-09-20T12:55:27.600Z,101263.31
2022-09-20T12:58:17.933Z,101243.63
2022-09-20T13:00:59.274Z,101253.22
2022-09-20T13:03:46.883Z,101251.13
2022-09-20T13:06:19.203Z,101252.09
2022-09-20T13:08:51.655Z,101255.53
2022-09-20T13:11:23.653Z,101276.03
2022-09-20T13:13:55.977Z,101292.25
2022-09-20T13:16:40.039Z,101266.06
2022-09-20T13:19:16.209Z,101265.03
2022-09-20T13:21:48.757Z,101288.44
2022-09-20T13:24:20.568Z,101267.25
2022-09-20T13:26:52.133Z,101282.88
2022-09-20T13:29:33.237Z,101291.91
2022-09-20T13:32:19.446Z,101271.91
2022-09-20T13:35:29.444Z,101290.28
2022-09-20T13:38:00.324Z,101289.59
2022-09-20T13:40:33.609Z,101339.56
2022-09-20T13:43:22.608Z,101295.72
2022-09-20T13:45:53.776Z,101299.97
2022-09-20T13:48:24.632Z,101294.09
2022-09-20T13:50:53.602Z,101331.75
2022-09-20T13:53:40.637Z,101305.66
2022-09-20T13:56:20.149Z,101283.16
2022-09-20T13:58:46.880Z,101258.63
2022-09-20T14:01:48.873Z,101263.94
2022-09-20T14:04:18.682Z,101290.72
2022-09-20T14:06:45.443Z,101254.00
2022-09-20T14:09:27.297Z,101265.09
2022-09-20T14:11:54.855Z,101260.34
2022-09-20T14:14:30.862Z,101284.44
2022-09-20T14:16:59.519Z,101258.91
2022-09-20T14:19:32.770Z,101266.97
2022-09-20T14:22:03.747Z,101247.53
2022-09-20T14:24:35.300Z,101248.50
2022-09-20T14:27:17.607Z,101247.94
2022-09-20T14:29:47.380Z,101243.03
2022-09-20T14:32:22.510Z,101251.00
2022-09-20T14:35:12.565Z,101253.53
2022-09-20T14:38:17.693Z,101227.78
2022-09-20T14:40:47.096Z,101235.63
2022-09-20T14:43:34.543Z,101245.59
2022-09-20T14:46:04.826Z,101234.72
2022-09-20T14:48:37.418Z,101258.78
2022-09-20T14:51:16.189Z,101235.41
2022-09-20T14:53:44.304Z,101212.22
2022-09-20T14:56:13.106Z,101228.47
2022-09-20T14:59:06.712Z,101251.88
2022-09-20T15:01:34.585Z,101253.19
2022-09-20T15:04:15.313Z,101228.72
2022-09-20T15:06:42.924Z,101234.41
2022-09-20T15:09:15.652Z,101217.72
2022-09-20T15:11:42.226Z,101266.41
2022-09-20T15:14:08.687Z,101233.44
2022-09-20T15:16:35.497Z,101234.88
2022-09-20T15:19:08.469Z,101254.00
2022-09-20T15:21:34.940Z,101251.25
2022-09-20T15:24:01.603Z,101286.91
2022-09-20T15:26:32.824Z,101262.97
2022-09-20T15:28:59.968Z,101288.16
2022-09-20T15:31:27.449Z,101246.78
2022-09-20T15:33:53.882Z,101248.38
2022-09-20T15:36:20.415Z,101286.19
2022-09-20T15:38:49.388Z,101306.63
2022-09-20T15:41:15.766Z,101283.09
2022-09-20T15:43:44.302Z,101313.28
2022-09-20T15:46:22.537Z,101303.91
2022-09-20T15:48:49.033Z,101327.09
2022-09-20T15:51:16.395Z,101322.84
2022-09-20T15:53:49.340Z,101301.25
2022-09-20T15:56:21.730Z,101290.22
2022-09-20T15:58:58.924Z,101278.75
2022-09-20T16:01:35.461Z,101269.84
2022-09-20T16:04:17.414Z,101295.63
2022-09-20T16:06:45.473Z,101264.59
2022-09-20T16:09:12.598Z,101252.56
2022-09-20T16:11:39.981Z,101253.09
2022-09-20T16:14:06.860Z,101251.97
2022-09-20T16:16:39.692Z,101261.34
2022-09-20T16:19:22.131Z,101249.91
2022-09-20T16:21:57.847Z,101223.88
2022-09-20T16:24:30.514Z,101253.38
2022-09-20T16:27:00.710Z,101281.50
2022-09-20T16:29:29.363Z,101258.22
2022-09-20T16:31:57.553Z,101246.56
2022-09-20T16:34:30.582Z,101227.97
2022-09-20T16:37:11.854Z,101255.97
2022-09-20T16:39:38.390Z,101252.19
2022-09-20T16:42:06.568Z,101246.22
2022-09-20T16:44:35.823Z,101245.38
2022-09-20T16:47:07.972Z,101253.78
2022-09-20T16:49:36.074Z,101244.44
2022-09-20T16:52:07.046Z,101265.69
2022-09-20T16:54:33.811Z,101266.38
2022-09-20T16:57:00.555Z,101271.19
2022-09-20T16:59:26.897Z,101250.19
2022-09-20T17:01:53.333Z,101253.50
2022-09-20T17:04:21.096Z,101230.16
2022-09-20T17:06:49.174Z,101267.41
2022-09-20T17:09:16.448Z,101244.88
2022-09-20T17:11:45.966Z,101255.34
2022-09-20T17:14:13.871Z,101274.91
2022-09-20T17:16:41.992Z,101244.38
2022-09-20T17:19:15.715Z,101251.44
2022-09-20T17:21:49.143Z,101247.28
2022-09-20T17:24:18.981Z,101255.06
2022-09-20T17:26:45.947Z,101275.97
2022-09-20T17:29:15.256Z,101273.03
2022-09-20T17:31:44.094Z,101254.84
2022-09-20T17:34:12.180Z,101262.63
2022-09-20T17:36:44.624Z,101267.69
2022-09-20T17:39:12.860Z,101273.84
2022-09-20T17:41:40.929Z,101278.19
2022-09-20T17:44:12.077Z,101279.91
2022-09-20T17:46:40.363Z,101281.97
2022-09-20T17:49:11.350Z,101283.41
2022-09-20T17:51:40.673Z,101284.28
2022-09-20T17:54:13.504Z,101286.72
2022-09-20T17:56:43.684Z,101285.19
2022-09-20T17:59:11.869Z,101286.28
2022-09-20T18:01:40.185Z,101282.03
2022-09-20T18:04:07.706Z,101292.47
2022-09-20T18:06:37.277Z,101298.81
2022-09-20T18:09:08.956Z,101300.16
2022-09-20T18:11:40.894Z,101301.00
2022-09-20T18:14:10.971Z,101306.31
2022-09-20T18:16:38.759Z,101309.88
2022-09-20T18:19:07.974Z,101310.72
2022-09-20T18:21:36.124Z,101306.66
2022-09-20T18:24:05.859Z,101314.50
2022-09-20T18:26:32.838Z,101311.97
2022-09-20T18:29:12.196Z,101316.38
2022-09-20T18:31:45.737Z,101311.75
2022-09-20T18:34:18.226Z,101320.78
2022-09-20T18:36:53.426Z,101312.78
2022-09-20T18:39:24.449Z,101315.47
2022-09-20T18:41:51.372Z,101326.06
2022-09-20T18:44:20.400Z,101322.13
2022-09-20T18:46:47.676Z,101329.94
2022-09-20T18:49:16.215Z,101327.88
2022-09-20T18:51:46.266Z,101333.81
2022-09-20T18:54:12.952Z,101334.31
2022-09-20T18:56:48.632Z,101337.72
2022-09-20T18:59:20.194Z,101353.88
2022-09-20T19:02:05.433Z,101350.31
2022-09-20T19:05:00.230Z,101362.41
2022-09-20T19:07:51.001Z,101364.63
2022-09-20T19:10:37.370Z,101370.06
2022-09-20T19:13:29.130Z,101368.88
2022-09-20T19:16:10.111Z,101378.91
2022-09-20T19:18:58.814Z,101376.00
2022-09-20T19:21:36.945Z,101381.91
2022-09-20T19:24:22.371Z,101387.69
2022-09-20T19:26:49.331Z,101390.38
2022-09-20T19:29:26.819Z,101397.47
2022-09-20T19:31:56.155Z,101397.59
2022-09-20T19:34:24.171Z,101405.56
2022-09-20T19:37:19.122Z,101398.06
2022-09-20T19:40:12.455Z,101402.09
2022-09-20T19:43:03.055Z,101397.28
2022-09-20T19:46:06.082Z,101409.69
2022-09-20T19:48:39.846Z,101412.88
2022-09-20T19:51:11.646Z,101417.25
2022-09-20T19:53:39.202Z,101412.97
2022-09-20T19:56:23.739Z,101410.41
2022-09-20T19:58:53.146Z,101409.00
2022-09-20T20:01:26.456Z,101412.34
2022-09-20T20:03:56.642Z,101406.19
2022-09-20T20:06:37.842Z,101408.56
2022-09-20T20:09:11.527Z,101409.56
2022-09-20T20:11:56.933Z,101413.59
2022-09-20T20:14:41.955Z,101420.38
2022-09-20T20:17:17.533Z,101419.81
2022-09-20T20:20:00.739Z,101420.13
2022-09-20T20:23:01.476Z,101420.13
2022-09-20T20:25:45.175Z,101413.44
2022-09-20T20:28:11.604Z,101420.06
2022-09-20T20:30:38.029Z,101415.59
2022-09-20T20:33:05.978Z,101420.19
2022-09-20T20:35:32.513Z,101421.06
2022-09-20T20:37:58.852Z,101423.94
2022-09-20T20:40:28.325Z,101423.22
2022-09-20T20:43:02.048Z,101422.22
2022-09-20T20:45:29.561Z,101420.38
2022-09-20T20:47:58.514Z,101419.66
2022-09-20T20:50:27.007Z,101423.78
2022-09-20T20:52:54.892Z,101432.78
2022-09-20T20:55:24.613Z,101434.53
2022-09-20T20:57:58.265Z,101429.31
2022-09-20T21:00:26.270Z,101429.84
2022-09-20T21:03:00.226Z,101440.38
2022-09-20T21:05:28.047Z,101434.44
2022-09-20T21:07:54.923Z,101445.19
2022-09-20T21:10:26.739Z,101438.50
2022-09-20T21:12:59.654Z,101442.31
2022-09-20T21:15:28.625Z,101433.66
2022-09-20T21:17:55.149Z,101437.09
2022-09-20T21:20:22.244Z,101427.06
2022-09-20T21:22:53.793Z,101429.78
2022-09-20T21:25:20.119Z,101434.03
2022-09-20T21:27:46.485Z,101435.91
2022-09-20T21:30:13.229Z,101429.91
2022-09-20T21:32:39.572Z,101430.25
2022-09-20T21:35:06.288Z,101433.81
2022-09-20T21:37:37.604Z,101432.09
2022-09-20T21:40:04.290Z,101437.88
2022-09-20T21:42:30.681Z,101440.91
2022-09-20T21:44:59.472Z,101436.78
2022-09-20T21:47:25.867Z,101441.50
2022-09-20T21:49:52.525Z,101435.16
2022-09-20T21:52:19.032Z,101443.47
2022-09-20T21:54:47.790Z,101440.50
2022-09-20T21:57:14.530Z,101439.97
2022-09-20T21:59:41.547Z,101439.41
2022-09-20T22:02:09.001Z,101441.72
2022-09-20T22:04:35.970Z,101443.03
2022-09-20T22:07:03.952Z,101441.50
2022-09-20T22:09:30.532Z,101444.22
2022-09-20T22:11:56.920Z,101441.72
2022-09-20T22:14:23.359Z,101439.56
2022-09-20T22:16:52.616Z,101447.16
2022-09-20T22:19:21.382Z,101450.22
2022-09-20T22:21:50.232Z,101455.09
2022-09-20T22:24:17.345Z,101454.69
2022-09-20T22:26:46.881Z,101449.03
2022-09-20T22:29:16.464Z,101455.31
2022-09-20T22:31:49.897Z,101449.47
2022-09-20T22:34:18.852Z,101443.59
2022-09-20T22:36:45.821Z,101440.50
2022-09-20T22:39:12.894Z,101443.34
2022-09-20T22:41:41.154Z,101433.97
2022-09-20T22:44:10.239Z,101445.97
2022-09-20T22:46:38.130Z,101440.72
2022-09-20T22:49:08.674Z,101436.56
2022-09-20T22:51:37.712Z,101443.19
2022-09-20T22:54:09.977Z,101441.59
2022-09-20T22:56:36.805Z,101445.78
2022-09-20T22:59:12.405Z,101446.66
2022-09-20T23:01:44.592Z,101448.09
2022-09-20T23:04:15.699Z,101449.25
2022-09-20T23:06:54.496Z,101443.09
2022-09-20T23:09:23.108Z,101448.28
2022-09-20T23:11:49.863Z,101446.84
2022-09-20T23:14:21.243Z,101450.72
2022-09-20T23:16:47.883Z,101447.59
2022-09-20T23:19:22.291Z,101451.56
2022-09-20T23:21:51.517Z,101442.16
2022-09-20T23:24:17.881Z,101452.47
2022-09-20T23:26:44.742Z,101448.34
2022-09-20T23:29:15.995Z,101450.50
2022-09-20T23:31:46.417Z,101449.63
2022-09-20T23:34:18.678Z,101450.19
2022-09-20T23:36:46.136Z,101444.63
2022-09-20T23:39:13.184Z,101439.19
2022-09-20T23:41:41.180Z,101450.50
2022-09-20T23:44:09.748Z,101447.78
2022-09-20T23:46:36.863Z,101442.06
2022-09-20T23:49:03.639Z,101446.22
2022-09-20T23:51:32.606Z,101447.94
2022-09-20T23:53:58.976Z,101442.50
2022-09-20T23:56:26.749Z,101446.66
2022-09-20T23:58:53.969Z,101443.22
